Time;durP1;ratioP1;P1;durP2;ratioP2;P2;SDS_P1;SDS_P2;PMS_P1;PMS_P2;Temp;Humidity;BMP_temperature;BMP_pressure;BME280_temperature;BME280_humidity;BME280_pressure;Samples;Min_cycle;Max_cycle;Signal;HPM_P1;HPM_P2
2022/08/20 00:00:54;;;;;;;7.13;5.30;;;;;;;18.49;100.00;90726.88;5011555;28;20037;-71
2022/08/20 00:03:26;;;;;;;8.88;5.15;;;;;;;18.36;100.00;90733.59;5011405;28;20052;-71
2022/08/20 00:06:07;;;;;;;7.20;5.30;;;;;;;18.24;100.00;90731.84;5011357;28;20053;-71
2022/08/20 00:08:33;;;;;;;6.80;5.13;;;;;;;18.40;100.00;90737.88;5011381;28;20036;-71
2022/08/20 00:11:00;;;;;;;8.18;5.40;;;;;;;18.45;100.00;90732.19;5011463;28;20113;-71
2022/08/20 00:13:30;;;;;;;4.78;4.28;;;;;;;18.40;100.00;90727.09;5011269;28;20030;-71
2022/08/20 00:15:56;;;;;;;5.63;4.32;;;;;;;18.30;100.00;90726.94;5011423;28;20052;-71
2022/08/20 00:18:22;;;;;;;6.28;4.30;;;;;;;18.25;100.00;90728.00;5011302;28;20037;-71
2022/08/20 00:20:50;;;;;;;6.57;4.53;;;;;;;18.24;100.00;90726.47;5011369;28;20026;-71
2022/08/20 00:23:18;;;;;;;6.65;4.82;;;;;;;18.21;100.00;90733.34;5011161;28;20526;-71
2022/08/20 00:25:44;;;;;;;6.38;5.13;;;;;;;18.15;100.00;90728.63;5011309;28;20112;-71
2022/08/20 00:28:11;;;;;;;9.60;6.22;;;;;;;18.13;100.00;90725.50;5011644;28;20065;-71
2022/08/20 00:30:39;;;;;;;7.55;5.07;;;;;;;18.14;100.00;90733.22;5011247;28;20049;-71
2022/08/20 00:33:12;;;;;;;6.88;5.05;;;;;;;18.12;100.00;90738.19;5011046;28;20030;-71
2022/08/20 00:35:41;;;;;;;5.40;4.35;;;;;;;18.07;100.00;90743.88;5011258;28;20029;-71
2022/08/20 00:38:07;;;;;;;5.68;4.93;;;;;;;18.06;100.00;90734.25;5011160;28;20034;-71
2022/08/20 00:40:40;;;;;;;6.80;4.57;;;;;;;18.07;100.00;90738.50;5011189;28;20108;-71
2022/08/20 00:43:25;;;;;;;8.63;5.38;;;;;;;18.12;100.00;90732.78;5011020;28;20439;-71
2022/08/20 00:45:54;;;;;;;6.55;4.80;;;;;;;18.06;100.00;90731.56;5009842;28;20400;-71
2022/08/20 00:48:20;;;;;;;8.70;5.32;;;;;;;17.90;100.00;90722.81;5011626;28;20033;-71
2022/08/20 00:50:46;;;;;;;9.75;5.30;;;;;;;17.79;100.00;90719.91;5011115;28;20080;-71
2022/08/20 00:53:11;;;;;;;7.20;5.05;;;;;;;17.69;100.00;90722.44;5013700;28;20034;-71
2022/08/20 00:55:37;;;;;;;7.85;4.82;;;;;;;17.68;100.00;90729.72;5014794;28;20026;-71
2022/08/20 00:58:08;;;;;;;9.00;5.57;;;;;;;17.64;100.00;90724.22;5014768;28;20494;-71
2022/08/20 01:00:41;;;;;;;6.65;5.10;;;;;;;17.60;100.00;90723.38;5014691;28;20026;-71
2022/08/20 01:03:08;;;;;;;;;;;;;;;17.63;100.00;90713.81;5014739;28;20096;-71
2022/08/20 01:05:35;;;;;;;7.55;5.05;;;;;;;17.56;100.00;90714.47;5014468;28;19917;-71
2022/08/20 01:08:02;;;;;;;8.80;5.47;;;;;;;17.51;100.00;90713.97;5014560;28;20153;-71
2022/08/20 01:10:33;;;;;;;9.65;5.72;;;;;;;17.40;100.00;90713.78;5014499;28;20037;-72
2022/08/20 01:12:59;;;;;;;7.40;6.00;;;;;;;17.33;100.00;90719.00;5014326;28;20026;-71
2022/08/20 01:15:29;;;;;;;9.13;6.57;;;;;;;17.33;100.00;90719.00;5014438;28;20038;-71
2022/08/20 01:17:57;;;;;;;9.43;5.97;;;;;;;17.38;100.00;90721.44;5014684;28;20052;-72
2022/08/20 01:20:27;;;;;;;9.90;5.97;;;;;;;17.45;100.00;90713.50;5014268;28;20022;-72
2022/08/20 01:23:54;;;;;;;7.18;5.10;;;;;;;17.53;100.00;90712.50;5014205;28;20096;-71
2022/08/20 01:26:25;;;;;;;7.43;5.63;;;;;;;17.56;100.00;90717.16;4971122;28;20058;-72
2022/08/20 01:28:54;;;;;;;7.18;5.38;;;;;;;17.51;100.00;90706.69;5014143;28;20026;-71
2022/08/20 01:31:23;;;;;;;6.57;5.10;;;;;;;17.57;100.00;90705.28;5014168;28;20033;-71
2022/08/20 01:33:51;;;;;;;5.95;5.30;;;;;;;17.69;100.00;90712.44;5013841;28;20100;-71
2022/08/20 01:36:21;;;;;;;6.70;4.97;;;;;;;17.81;100.00;90704.19;5013908;28;20030;-71
2022/08/20 01:38:47;;;;;;;7.38;5.70;;;;;;;17.84;100.00;90694.66;5014197;28;20072;-71
2022/08/20 01:41:29;;;;;;;9.68;5.60;;;;;;;17.83;100.00;90691.19;5012629;28;20030;-71
2022/08/20 01:43:56;;;;;;;10.90;5.53;;;;;;;17.75;100.00;90694.88;5012447;28;20030;-71
2022/08/20 01:46:28;;;;;;;9.02;6.25;;;;;;;17.74;100.00;90692.53;5013791;28;20427;-71
2022/08/20 01:48:56;;;;;;;7.90;5.83;;;;;;;17.74;100.00;90692.53;5013314;28;20049;-71
2022/08/20 01:51:27;;;;;;;7.68;5.30;;;;;;;17.73;100.00;90689.06;5013736;28;20076;-71
2022/08/20 01:53:55;;;;;;;6.88;5.15;;;;;;;17.72;100.00;90692.91;5013385;28;20026;-71
2022/08/20 01:56:24;;;;;;;7.88;5.78;;;;;;;17.59;100.00;90692.25;5013622;28;20117;-71
2022/08/20 01:58:53;;;;;;;8.10;5.25;;;;;;;17.52;100.00;90685.97;5013598;28;20443;-71
2022/08/20 02:01:24;;;;;;;6.05;5.30;;;;;;;17.48;100.00;90677.03;5013589;28;20377;-71
2022/08/20 02:03:51;;;;;;;7.13;5.28;;;;;;;17.33;100.00;90678.69;5012666;28;20050;-71
2022/08/20 02:06:17;;;;;;;6.00;3.90;;;;;;;17.14;100.00;90673.31;5013215;28;20045;-71
2022/08/20 02:08:42;;;;;;;5.22;4.25;;;;;;;17.02;100.00;90676.91;5013415;28;20029;-71
2022/08/20 02:11:09;;;;;;;8.35;4.55;;;;;;;16.93;100.00;90671.78;5013353;28;20459;-71
2022/08/20 02:13:34;;;;;;;7.60;4.95;;;;;;;16.83;100.00;90660.78;5013125;28;20030;-71
2022/08/20 02:16:00;;;;;;;6.03;4.45;;;;;;;16.85;100.00;90671.97;5013238;28;20096;-71
2022/08/20 02:18:25;;;;;;;6.72;5.20;;;;;;;16.83;100.00;90660.78;5013189;28;20030;-71
2022/08/20 02:20:51;;;;;;;7.60;5.05;;;;;;;16.79;100.00;90654.56;5013134;28;20026;-71
2022/08/20 02:23:17;;;;;;;7.78;5.57;;;;;;;16.90;100.00;90660.97;5013054;28;20030;-71
2022/08/20 02:25:46;;;;;;;7.72;5.78;;;;;;;17.00;100.00;90655.78;5011748;28;20462;-71
2022/08/20 02:28:15;;;;;;;9.88;6.35;;;;;;;17.05;100.00;90650.13;5143419;23;20058;-71
2022/08/20 02:30:43;;;;;;;7.13;4.95;;;;;;;17.20;100.00;90653.06;5012925;28;20109;-70
2022/08/20 02:33:11;;;;;;;7.03;4.35;;;;;;;17.27;100.00;90664.75;5013138;28;20030;-71
2022/08/20 02:35:38;;;;;;;6.75;4.78;;;;;;;17.30;100.00;90668.63;5012902;28;20490;-71
2022/08/20 02:38:04;;;;;;;7.10;4.68;;;;;;;17.35;100.00;90676.41;5012789;28;20105;-71
2022/08/20 02:40:31;;;;;;;5.97;4.57;;;;;;;17.27;100.00;90669.34;5012781;28;20116;-71
2022/08/20 02:43:00;;;;;;;5.53;4.70;;;;;;;17.18;100.00;90672.25;5012800;28;20454;-71
2022/08/20 02:45:26;;;;;;;5.55;4.82;;;;;;;17.03;100.00;90649.69;5012752;28;20056;-71
2022/08/20 02:47:52;;;;;;;7.30;4.97;;;;;;;16.92;100.00;90662.16;5012550;28;20033;-71
2022/08/20 02:50:19;;;;;;;7.25;5.55;;;;;;;16.91;100.00;90662.50;5012661;28;20048;-71
2022/08/20 02:52:46;;;;;;;10.23;5.35;;;;;;;16.88;100.00;90663.97;5012544;28;20037;-72
2022/08/20 02:55:12;;;;;;;5.82;4.47;;;;;;;16.90;100.00;90658.28;5012585;28;20026;-71
2022/08/20 02:57:38;;;;;;;6.35;5.30;;;;;;;16.93;100.00;90674.47;5012430;28;20030;-71
2022/08/20 03:00:10;;;;;;;6.55;4.45;;;;;;;16.87;100.00;90664.31;5012501;28;20101;-71
2022/08/20 03:02:35;;;;;;;6.15;5.07;;;;;;;16.87;100.00;90661.63;5012301;28;20034;-71
2022/08/20 03:05:01;;;;;;;7.53;5.40;;;;;;;16.84;100.00;90671.19;5012363;28;20411;-71
2022/08/20 03:07:27;;;;;;;9.60;5.10;;;;;;;16.84;100.00;90660.44;5012278;28;20062;-71
2022/08/20 03:09:53;;;;;;;6.55;5.15;;;;;;;16.95;100.00;90677.56;5012213;28;20024;-71
2022/08/20 03:12:18;;;;;;;8.80;5.53;;;;;;;17.06;100.00;90667.03;5012129;28;20030;-71
2022/08/20 03:14:43;;;;;;;7.53;5.65;;;;;;;17.06;100.00;90664.34;5011867;28;20037;-71
2022/08/20 03:17:09;;;;;;;7.53;5.88;;;;;;;17.13;100.00;90669.09;5011319;28;20045;-70
2022/08/20 03:19:34;;;;;;;7.20;5.57;;;;;;;17.16;100.00;90668.38;5012381;28;20037;-71
2022/08/20 03:22:00;;;;;;;5.72;4.63;;;;;;;17.15;100.00;90672.97;5012072;28;20037;-71
2022/08/20 03:24:25;;;;;;;7.68;4.65;;;;;;;17.06;100.00;90667.03;5012004;28;20021;-71
2022/08/20 03:26:51;;;;;;;8.05;4.68;;;;;;;17.14;100.00;90666.03;5011655;28;20107;-71
2022/08/20 03:29:16;;;;;;;7.72;4.97;;;;;;;17.17;100.00;90678.75;5011926;28;20030;-71
2022/08/20 03:31:41;;;;;;;5.68;4.30;;;;;;;17.15;100.00;90681.03;5011881;28;20026;-71
2022/08/20 03:34:07;;;;;;;7.30;4.70;;;;;;;16.91;100.00;90681.31;5011883;28;20034;-71
2022/08/20 03:36:32;;;;;;;7.78;4.82;;;;;;;16.71;100.00;90677.81;5011797;28;20029;-71
2022/08/20 03:39:01;;;;;;;5.88;4.55;;;;;;;16.70;100.00;90681.63;5011878;28;20443;-71
2022/08/20 03:41:27;;;;;;;6.97;4.80;;;;;;;16.68;100.00;90681.22;5011741;28;20037;-71
2022/08/20 03:43:53;;;;;;;7.78;4.60;;;;;;;16.59;100.00;90683.28;5011827;28;20044;-71
2022/08/20 03:46:20;;;;;;;6.47;5.28;;;;;;;16.52;100.00;90683.91;5012018;28;20029;-71
2022/08/20 03:48:46;;;;;;;6.60;4.60;;;;;;;16.51;100.00;90687.72;5011602;28;20040;-71
2022/08/20 03:51:11;;;;;;;8.70;4.60;;;;;;;16.66;100.00;90686.91;5011628;28;20026;-71
2022/08/20 03:53:36;;;;;;;5.63;4.35;;;;;;;16.82;100.00;90680.72;5011482;28;20403;-71
2022/08/20 03:56:05;;;;;;;6.10;4.47;;;;;;;16.86;100.00;90685.03;5011576;28;20061;-71
2022/08/20 03:58:32;;;;;;;5.82;4.25;;;;;;;16.89;100.00;90679.00;5011276;28;20103;-71
2022/08/20 04:00:58;;;;;;;5.43;4.70;;;;;;;16.84;100.00;90681.94;5011576;28;20121;-71
2022/08/20 04:03:24;;;;;;;7.18;4.70;;;;;;;16.83;100.00;90683.06;5011433;28;20021;-71
2022/08/20 04:05:50;;;;;;;6.85;4.97;;;;;;;16.72;100.00;90690.09;5011395;28;20061;-71
2022/08/20 04:08:22;;;;;;;6.07;4.93;;;;;;;16.70;100.00;90695.84;5011359;28;20026;-71
2022/08/20 04:10:49;;;;;;;6.55;4.78;;;;;;;16.74;100.00;90682.50;5011304;28;20049;-71
2022/08/20 04:13:16;;;;;;;5.00;4.43;;;;;;;16.83;100.00;90688.44;5011221;28;20472;-71
2022/08/20 04:15:43;;;;;;;5.82;4.47;;;;;;;16.86;100.00;90681.56;5009995;28;20392;-71
2022/08/20 04:18:10;;;;;;;5.68;4.18;;;;;;;17.00;100.00;90690.72;5011247;28;20040;-71
2022/08/20 04:20:39;;;;;;;7.30;4.82;;;;;;;17.06;100.00;90681.25;5011304;28;20045;-71
2022/08/20 04:23:06;;;;;;;7.82;5.28;;;;;;;17.18;100.00;90676.84;5011256;28;20029;-71
2022/08/20 04:25:33;;;;;;;7.20;4.75;;;;;;;17.22;100.00;90678.50;5006381;28;20026;-71
2022/08/20 04:28:00;;;;;;;6.55;5.10;;;;;;;17.29;100.00;90681.31;5013389;28;20046;-71
2022/08/20 04:30:27;;;;;;;7.18;4.88;;;;;;;17.44;100.00;90679.66;5015210;28;20034;-70
2022/08/20 04:32:53;;;;;;;7.30;5.57;;;;;;;17.70;100.00;90678.25;5014939;28;20022;-71
2022/08/20 04:35:18;;;;;;;9.15;4.85;;;;;;;17.92;100.00;90678.25;5015105;28;20037;-71
2022/08/20 04:37:45;;;;;;;5.13;4.35;;;;;;;18.11;100.00;90682.00;5014971;28;20029;-71
2022/08/20 04:43:00;;;;;;;5.75;4.40;;;;;;;18.46;100.00;90676.38;5015010;28;20522;-71
2022/08/20 04:45:25;;;;;;;10.82;7.22;;;;;;;18.58;100.00;90673.50;5014986;28;20034;-71
2022/08/20 04:47:52;;;;;;;7.68;4.40;;;;;;;18.49;100.00;90675.69;5014800;28;20033;-71
2022/08/20 04:50:19;;;;;;;8.13;4.93;;;;;;;18.72;100.00;90687.22;5014899;28;20040;-71
2022/08/20 04:52:46;;;;;;;10.55;6.35;;;;;;;19.62;100.00;90675.63;5014639;28;20052;-71
2022/08/20 04:55:12;;;;;;;7.75;5.30;;;;;;;20.07;98.81;90677.25;5014770;28;20544;-71
2022/08/20 04:57:38;;;;;;;9.38;5.90;;;;;;;20.37;94.82;90671.72;5014632;28;20026;-71
2022/08/20 05:00:08;;;;;;;7.70;6.15;;;;;;;20.74;90.18;90673.53;5014739;28;20507;-71
2022/08/20 05:02:34;;;;;;;9.00;4.75;;;;;;;21.41;83.53;90675.84;5014860;28;20043;-71
2022/08/20 05:05:02;;;;;;;8.98;5.55;;;;;;;22.70;73.22;90677.63;5014844;28;20041;-71
2022/08/20 05:07:28;;;;;;;6.00;4.55;;;;;;;22.84;70.47;90682.31;5014538;28;20037;-71
2022/08/20 05:09:53;;;;;;;6.90;4.78;;;;;;;23.93;65.37;90685.88;5014570;28;20393;-71
2022/08/20 05:12:18;;;;;;;6.32;4.47;;;;;;;24.17;63.78;90684.19;5014428;28;20026;-71
2022/08/20 05:14:45;;;;;;;6.40;4.57;;;;;;;24.86;61.78;90680.59;5014489;28;20037;-71
2022/08/20 05:17:13;;;;;;;5.57;3.83;;;;;;;25.68;59.19;90685.25;5014360;28;20026;-71
2022/08/20 05:19:40;;;;;;;6.78;4.50;;;;;;;25.66;59.06;90682.13;5014272;28;20042;-71
2022/08/20 05:22:06;;;;;;;8.38;5.38;;;;;;;26.20;57.08;90685.00;5014278;28;20385;-71
2022/08/20 05:24:32;;;;;;;5.32;4.13;;;;;;;26.57;55.88;90684.09;5014223;28;20065;-71
2022/08/20 05:26:59;;;;;;;5.70;4.63;;;;;;;27.09;54.42;90681.72;5013993;28;20050;-71
2022/08/20 05:29:25;;;;;;;7.03;4.60;;;;;;;28.42;51.59;90669.06;5014140;28;20466;-71
2022/08/20 05:31:50;;;;;;;4.90;4.05;;;;;;;29.44;49.07;90671.28;5013956;28;20487;-71
2022/08/20 05:34:16;;;;;;;7.78;5.25;;;;;;;29.17;49.35;90679.03;5012665;28;20036;-72
2022/08/20 05:36:48;;;;;;;6.40;5.13;;;;;;;29.72;47.41;90674.50;5013810;28;20031;-71
2022/08/20 05:39:14;;;;;;;7.00;5.47;;;;;;;30.14;47.09;90666.31;5012856;28;20521;-72
2022/08/20 05:41:40;;;;;;;7.80;4.97;;;;;;;30.75;46.25;90665.28;5013878;28;20269;-71
2022/08/20 05:44:12;;;;;;;5.40;4.82;;;;;;;31.35;43.60;90670.84;5012825;28;20028;-71
2022/08/20 05:46:39;;;;;;;7.18;4.75;;;;;;;31.58;44.57;90675.97;5013859;28;20037;-71
2022/08/20 05:49:06;;;;;;;7.80;5.90;;;;;;;32.32;43.04;90675.34;5013908;28;20415;-71
2022/08/20 05:51:31;;;;;;;7.05;5.90;;;;;;;33.28;41.29;90670.88;5013612;28;20030;-71
2022/08/20 05:53:57;;;;;;;8.30;5.88;;;;;;;33.34;40.01;90672.63;5013446;28;20022;-71
2022/08/20 05:56:22;;;;;;;5.95;5.00;;;;;;;33.99;39.84;90673.47;5013395;28;20045;-71
2022/08/20 05:58:48;;;;;;;5.65;5.00;;;;;;;34.20;38.62;90669.75;5013481;28;20050;-71
2022/08/20 06:01:13;;;;;;;6.97;5.28;;;;;;;33.94;39.88;90663.81;5013396;28;20533;-71
2022/08/20 06:06:22;;;;;;;5.32;4.45;;;;;;;33.52;39.88;90651.81;5013580;28;20112;-71
2022/08/20 06:08:48;;;;;;;6.40;5.05;;;;;;;32.56;41.25;90661.09;5013337;28;20475;-72
2022/08/20 06:11:13;;;;;;;5.85;4.55;;;;;;;32.85;41.24;90656.06;5013274;28;20414;-68
2022/08/20 06:13:38;;;;;;;4.88;3.92;;;;;;;34.23;39.27;90657.03;5013197;28;20030;-71
2022/08/20 06:16:04;;;;;;;7.43;4.85;;;;;;;35.71;36.42;90658.81;5013229;28;20117;-70
2022/08/20 06:18:30;;;;;;;7.57;4.35;;;;;;;36.12;35.58;90664.66;5013099;28;20034;-70
2022/08/20 06:20:55;;;;;;;6.07;5.30;;;;;;;35.34;36.75;90647.94;5013137;28;20117;-70
2022/08/20 06:23:23;;;;;;;4.72;4.32;;;;;;;35.88;36.59;90659.94;5013163;28;20466;-70
2022/08/20 06:25:51;;;;;;;6.15;4.68;;;;;;;36.93;36.00;90656.03;5013019;28;20410;-70
2022/08/20 06:28:17;;;;;;;6.30;4.50;;;;;;;37.12;35.52;90660.91;5012758;28;20046;-70
2022/08/20 06:30:43;;;;;;;6.47;5.05;;;;;;;37.67;33.42;90667.75;5012940;28;20487;-70
2022/08/20 06:33:08;;;;;;;9.73;5.03;;;;;;;38.00;33.70;90659.88;5012862;28;20026;-70
2022/08/20 06:35:36;;;;;;;9.10;6.10;;;;;;;38.60;32.66;90665.84;5012833;28;20022;-70
2022/08/20 06:38:04;;;;;;;6.63;5.38;;;;;;;37.97;34.15;90665.66;5012990;28;20116;-70
2022/08/20 06:40:29;;;;;;;18.58;11.95;;;;;;;37.89;34.27;90659.00;5012755;28;20060;-70
2022/08/20 06:42:56;;;;;;;27.33;18.50;;;;;;;36.75;35.89;90659.75;5012677;28;20085;-70
2022/08/20 06:45:27;;;;;;;7.63;5.60;;;;;;;37.68;35.08;90664.50;5012557;28;20124;-70
2022/08/20 06:47:56;;;;;;;7.03;5.40;;;;;;;39.57;34.12;90669.75;5012583;28;20053;-71
2022/08/20 06:50:30;;;;;;;9.88;5.57;;;;;;;39.81;32.37;90663.81;5012436;28;20440;-71
2022/08/20 06:52:56;;;;;;;7.40;5.13;;;;;;;40.76;31.40;90660.63;5012469;28;20033;-71
2022/08/20 06:55:22;;;;;;;7.85;5.72;;;;;;;39.64;33.43;90672.09;5012807;28;20105;-71
2022/08/20 06:57:56;;;;;;;6.55;5.18;;;;;;;39.89;33.74;90673.22;5012516;28;20036;-71
2022/08/20 07:00:23;;;;;;;5.00;4.25;;;;;;;38.09;34.81;90661.00;5012708;28;20055;-69
2022/08/20 07:02:48;;;;;;;5.53;4.93;;;;;;;37.05;36.63;90658.53;5012327;28;20025;-69
2022/08/20 07:05:15;;;;;;;5.40;4.25;;;;;;;35.95;39.16;90659.56;5012327;28;20034;-69
2022/08/20 07:07:44;;;;;;;6.22;4.82;;;;;;;36.33;38.55;90646.97;5012169;28;20414;-69
2022/08/20 07:10:13;;;;;;;5.57;5.00;;;;;;;35.57;38.92;90651.97;5012296;28;20037;-71
2022/08/20 07:12:38;;;;;;;6.82;4.90;;;;;;;33.93;40.93;90642.19;5012159;28;20018;-70
2022/08/20 07:15:07;;;;;;;6.15;4.57;;;;;;;34.20;40.66;90650.44;5012226;28;20091;-70
2022/08/20 07:17:33;;;;;;;6.45;4.50;;;;;;;36.26;39.28;90655.59;5012121;28;20026;-70
2022/08/20 07:20:04;;;;;;;5.47;4.85;;;;;;;37.32;36.81;90657.44;5012211;28;20141;-71
2022/08/20 07:22:29;;;;;;;6.57;5.07;;;;;;;36.55;38.50;90652.91;5011997;28;20105;-70
2022/08/20 07:24:55;;;;;;;10.43;6.18;;;;;;;37.38;37.25;90649.19;5012050;28;20034;-70
2022/08/20 07:27:22;;;;;;;9.52;4.82;;;;;;;37.89;37.21;90647.88;5011799;28;20115;-70
2022/08/20 07:32:35;;;;;;;9.48;6.70;;;;;;;39.88;34.01;90652.19;5011863;28;20041;-70
2022/08/20 07:35:02;;;;;;;7.07;5.10;;;;;;;38.99;34.59;90655.13;5011813;28;20514;-70
2022/08/20 07:37:27;;;;;;;7.40;4.70;;;;;;;37.13;36.66;90654.13;5011816;28;20581;-70
2022/08/20 07:39:53;;;;;;;6.82;4.93;;;;;;;36.34;38.46;90644.97;5011798;28;20042;-71
2022/08/20 07:42:18;;;;;;;6.78;5.28;;;;;;;35.30;38.77;90652.09;5011839;28;20103;-70
2022/08/20 07:44:43;;;;;;;5.50;4.82;;;;;;;34.50;40.98;90643.19;5011784;28;20042;-70
2022/08/20 07:47:09;;;;;;;5.00;4.45;;;;;;;34.36;40.22;90641.06;5010381;28;20549;-70
2022/08/20 07:49:40;;;;;;;5.95;4.80;;;;;;;34.85;40.42;90642.75;5011680;28;20057;-72
2022/08/20 07:52:06;;;;;;;10.18;4.80;;;;;;;35.36;40.83;90639.97;5011640;28;20103;-69
2022/08/20 07:54:31;;;;;;;6.00;5.03;;;;;;;36.01;39.69;90645.84;5011516;28;20038;-70
2022/08/20 07:57:04;;;;;;;6.68;5.35;;;;;;;37.40;37.70;90641.94;5011422;28;20041;-69
2022/08/20 07:59:30;;;;;;;22.60;16.50;;;;;;;37.29;36.60;90654.88;5011825;28;20045;-69
2022/08/20 08:01:55;;;;;;;5.85;4.97;;;;;;;37.79;35.95;90641.69;5010950;28;20140;-70
2022/08/20 08:04:23;;;;;;;7.97;5.95;;;;;;;37.48;36.69;90642.28;5011425;28;20507;-70
2022/08/20 08:06:52;;;;;;;7.15;4.68;;;;;;;38.51;35.05;90641.03;5011363;28;20060;-70
2022/08/20 08:09:17;;;;;;;7.15;5.55;;;;;;;39.26;34.27;90633.56;5011472;28;20052;-70
2022/08/20 08:11:50;;;;;;;6.03;4.88;;;;;;;39.23;33.67;90635.34;5011472;28;20045;-70
2022/08/20 08:14:22;;;;;;;6.35;4.57;;;;;;;40.04;33.07;90636.84;5011379;28;20034;-70
2022/08/20 08:16:48;;;;;;;8.48;6.32;;;;;;;39.63;33.37;90636.38;5011291;28;20042;-69
2022/08/20 08:19:15;;;;;;;5.93;5.10;;;;;;;39.38;33.26;90644.28;5011433;28;20052;-69
2022/08/20 08:21:43;;;;;;;5.32;4.30;;;;;;;39.30;33.62;90642.47;5011360;28;20050;-70
2022/08/20 08:24:10;;;;;;;6.65;4.63;;;;;;;38.59;33.66;90642.09;5011314;28;20041;-70
2022/08/20 08:26:36;;;;;;;6.32;5.00;;;;;;;38.23;35.41;90649.06;5011395;28;20073;-69
2022/08/20 08:29:01;;;;;;;5.43;4.53;;;;;;;39.73;33.86;90638.44;5011092;28;20046;-70
2022/08/20 08:31:27;;;;;;;5.38;4.68;;;;;;;39.65;32.24;90639.44;5011274;28;20112;-70
2022/08/20 08:33:53;;;;;;;8.02;4.82;;;;;;;37.32;37.05;90634.50;5011208;28;20044;-70
2022/08/20 08:36:19;;;;;;;5.78;4.97;;;;;;;37.41;36.49;90635.13;5011170;28;20495;-70
2022/08/20 08:38:45;;;;;;;42.67;27.73;;;;;;;38.68;35.20;90636.41;5011436;28;20148;-70
2022/08/20 08:41:19;;;;;;;6.93;5.57;;;;;;;38.92;34.33;90636.09;5011150;28;20061;-70
2022/08/20 08:43:48;;;;;;;31.25;21.63;;;;;;;39.75;34.29;90637.94;5011203;28;20069;-69
2022/08/20 08:46:20;;;;;;;7.25;5.45;;;;;;;40.08;33.87;90631.78;5011023;28;20499;-69
2022/08/20 08:48:52;;;;;;;6.17;5.00;;;;;;;41.54;31.36;90629.97;5011129;28;20581;-70
2022/08/20 08:51:26;;;;;;;6.68;4.50;;;;;;;42.24;30.39;90620.38;5011041;28;20569;-69
2022/08/20 08:53:54;;;;;;;6.32;5.18;;;;;;;41.05;32.99;90623.91;5011019;28;20064;-69
2022/08/20 08:56:23;;;;;;;5.68;5.18;;;;;;;42.12;31.00;90618.91;5010961;28;20111;-69
2022/08/20 08:58:48;;;;;;;5.45;4.63;;;;;;;39.06;33.46;90617.72;5011207;28;20034;-69
2022/08/20 09:01:17;;;;;;;6.15;4.82;;;;;;;39.88;31.90;90607.63;5011041;28;20049;-69
2022/08/20 09:03:47;;;;;;;6.55;5.45;;;;;;;38.93;33.27;90624.47;5011044;28;20038;-70
2022/08/20 09:06:17;;;;;;;5.43;4.57;;;;;;;36.76;35.73;90605.84;5010837;28;20038;-69
2022/08/20 09:08:48;;;;;;;5.97;4.80;;;;;;;36.11;37.52;90619.59;5010779;28;20045;-69
2022/08/20 09:11:16;;;;;;;5.40;4.80;;;;;;;36.64;36.81;90618.03;5010907;28;20033;-69
2022/08/20 09:13:42;;;;;;;7.15;5.18;;;;;;;38.43;34.88;90606.56;5012915;28;20041;-69
2022/08/20 09:16:09;;;;;;;6.63;4.68;;;;;;;40.25;34.01;90613.09;5014409;28;20109;-69
2022/08/20 09:18:34;;;;;;;6.10;4.53;;;;;;;39.35;32.67;90603.53;5014380;28;20042;-69
2022/08/20 09:21:00;;;;;;;5.13;4.63;;;;;;;39.18;34.53;90602.69;5014372;28;20522;-69
2022/08/20 09:23:25;;;;;;;6.78;5.05;;;;;;;36.72;35.68;90616.38;5014296;28;20041;-69
2022/08/20 09:25:51;;;;;;;5.72;4.97;;;;;;;36.32;36.70;90603.88;5014266;28;20064;-69
2022/08/20 09:28:16;;;;;;;5.13;4.63;;;;;;;36.67;36.38;90603.19;5013937;28;20038;-69
2022/08/20 09:30:42;;;;;;;7.45;4.97;;;;;;;37.12;37.64;90601.91;5014185;28;20034;-69
2022/08/20 09:33:07;;;;;;;7.22;6.15;;;;;;;38.64;33.94;90594.91;5014083;28;20046;-69
2022/08/20 09:35:33;;;;;;;6.50;5.55;;;;;;;38.57;33.08;90600.13;5014097;28;20511;-69
2022/08/20 09:37:59;;;;;;;5.40;4.72;;;;;;;39.34;32.72;90604.81;5013898;28;20050;-70
2022/08/20 09:40:25;;;;;;;5.60;5.03;;;;;;;40.76;31.30;90610.41;5014056;28;20038;-69
2022/08/20 09:42:50;;;;;;;7.97;4.70;;;;;;;40.07;31.16;90613.53;5013917;28;20061;-69
2022/08/20 09:45:17;;;;;;;5.32;4.82;;;;;;;39.66;31.67;90607.53;5013864;28;20423;-69
2022/08/20 09:47:42;;;;;;;16.00;10.40;;;;;;;38.80;34.42;90604.63;5013762;28;20045;-69
2022/08/20 09:50:08;;;;;;;6.85;5.40;;;;;;;39.14;34.69;90610.50;5014105;28;20096;-69
2022/08/20 09:52:36;;;;;;;6.97;5.10;;;;;;;39.01;34.51;90599.75;5013704;28;20499;-69
2022/08/20 09:55:10;;;;;;;9.35;7.80;;;;;;;40.05;32.50;90594.53;5013712;28;20057;-69
2022/08/20 09:57:36;;;;;;;6.15;5.15;;;;;;;38.76;32.30;90592.97;5013633;28;20081;-69
2022/08/20 10:00:07;;;;;;;5.90;4.95;;;;;;;38.67;33.50;90593.19;5013621;28;20042;-68
2022/08/20 10:02:33;;;;;;;6.20;5.18;;;;;;;40.15;32.53;90595.06;5013516;28;20046;-68
2022/08/20 10:04:58;;;;;;;8.10;5.95;;;;;;;40.43;31.63;90600.75;5013477;28;20412;-69
2022/08/20 10:07:23;;;;;;;5.35;4.60;;;;;;;40.76;30.72;90597.25;5013362;28;20496;-69
2022/08/20 10:09:49;;;;;;;5.85;4.97;;;;;;;39.90;31.71;90599.50;5013463;28;20053;-69
2022/08/20 10:12:14;;;;;;;6.45;5.03;;;;;;;39.24;32.46;90584.75;5013364;28;20141;-68
2022/08/20 10:14:40;;;;;;;9.45;6.60;;;;;;;37.79;33.93;90594.50;5013265;28;20092;-68
2022/08/20 10:17:05;;;;;;;5.75;5.10;;;;;;;38.69;33.87;90589.91;5013228;28;20133;-68
2022/08/20 10:19:31;;;;;;;7.32;5.80;;;;;;;40.01;32.00;90594.03;5013328;28;20042;-68
2022/08/20 10:21:57;;;;;;;6.88;5.88;;;;;;;38.54;33.16;90592.78;5013236;28;20042;-68
2022/08/20 10:24:23;;;;;;;8.00;5.50;;;;;;;37.14;35.16;90596.63;5012727;28;20523;-68
2022/08/20 10:26:49;;;;;;;7.72;5.80;;;;;;;38.68;33.76;90589.13;5012822;28;20041;-68
2022/08/20 10:29:16;;;;;;;6.75;5.78;;;;;;;36.40;35.91;90591.16;5012538;28;20065;-68
2022/08/20 10:31:41;;;;;;;19.65;13.88;;;;;;;35.14;38.04;90586.91;5012962;28;20050;-70
2022/08/20 10:34:07;;;;;;;7.88;5.95;;;;;;;32.75;42.64;90580.06;5013010;28;20112;-69
2022/08/20 10:36:33;;;;;;;9.90;7.13;;;;;;;31.54;45.70;90587.31;5012840;28;20427;-69
2022/08/20 10:38:58;;;;;;;8.40;6.15;;;;;;;30.65;47.35;90580.06;5012923;28;20044;-70
2022/08/20 10:41:24;;;;;;;10.52;8.23;;;;;;;29.87;48.43;90581.66;5012833;28;20045;-70
2022/08/20 10:43:49;;;;;;;10.63;7.90;;;;;;;29.59;48.83;90573.03;5012857;28;20056;-70
2022/08/20 10:46:15;;;;;;;6.78;6.07;;;;;;;29.93;48.49;90575.16;5013006;28;20045;-70
2022/08/20 10:48:40;;;;;;;7.60;5.15;;;;;;;28.56;50.64;90576.44;5012622;28;20045;-70
2022/08/20 10:51:06;;;;;;;8.02;5.90;;;;;;;28.25;51.97;90577.94;5012534;28;20049;-70
2022/08/20 10:53:31;;;;;;;9.15;6.18;;;;;;;28.10;54.39;90584.94;5012337;28;20141;-70
2022/08/20 10:55:57;;;;;;;6.20;5.13;;;;;;;28.05;53.33;90583.47;5012411;28;20042;-70
2022/08/20 10:58:24;;;;;;;5.55;4.65;;;;;;;27.48;54.35;90576.44;5012514;28;20046;-70
2022/08/20 11:00:50;;;;;;;8.60;6.32;;;;;;;27.34;55.57;90579.47;5012460;28;20423;-70
2022/08/20 11:03:15;;;;;;;10.75;8.48;;;;;;;27.49;55.96;90572.53;5012492;28;20590;-70
2022/08/20 11:05:41;;;;;;;9.07;5.60;;;;;;;27.74;55.46;90577.50;5012665;28;20573;-70
2022/08/20 11:08:06;;;;;;;7.25;5.68;;;;;;;27.63;55.76;90585.13;5012270;28;20471;-69
2022/08/20 11:10:34;;;;;;;7.22;5.55;;;;;;;27.45;56.54;90605.34;5012362;28;20034;-70
2022/08/20 11:13:01;;;;;;;5.53;4.35;;;;;;;27.13;57.09;90602.47;5012233;28;20038;-70
2022/08/20 11:15:26;;;;;;;7.75;6.13;;;;;;;26.87;58.70;90593.19;5012264;28;20042;-70
2022/08/20 11:17:52;;;;;;;7.45;5.85;;;;;;;26.81;59.32;90589.38;5012060;28;20038;-69
2022/08/20 11:20:20;;;;;;;12.05;6.47;;;;;;;27.05;59.07;90582.72;5012164;28;20113;-69
2022/08/20 11:22:46;;;;;;;10.70;8.00;;;;;;;27.25;58.67;90574.53;5012342;28;20053;-69
2022/08/20 11:25:12;;;;;;;7.68;5.85;;;;;;;27.27;58.84;90563.97;5012010;28;20046;-70
2022/08/20 11:27:43;;;;;;;8.10;5.53;;;;;;;27.10;58.75;90573.28;5011836;28;20072;-70
2022/08/20 11:30:12;;;;;;;8.18;6.15;;;;;;;26.94;59.82;90554.81;5011983;28;20507;-70
2022/08/20 11:32:37;;;;;;;11.52;8.32;;;;;;;26.68;60.49;90558.44;5011775;28;20496;-70
2022/08/20 11:35:03;;;;;;;8.02;6.25;;;;;;;26.33;62.78;90555.06;5011864;28;20032;-70
2022/08/20 11:37:29;;;;;;;7.18;5.55;;;;;;;26.23;63.74;90556.03;5010966;28;20107;-70